Time;durP1;ratioP1;P1;durP2;ratioP2;P2;SDS_P1;SDS_P2;PMS_P1;PMS_P2;Temp;Humidity;BMP_temperature;BMP_pressure;BME280_temperature;BME280_humidity;BME280_pressure;Samples;Min_cycle;Max_cycle;Signal;HPM_P1;HPM_P2
2020/12/10 00:00:56;;;;;;;47.57;20.20;;;2.90;99.90;;;;;;6212235;23;20183;-50
2020/12/10 00:03:22;;;;;;;49.40;21.40;;;2.90;99.90;;;;;;6211673;23;20195;-56
2020/12/10 00:05:49;;;;;;;47.93;22.17;;;2.90;99.90;;;;;;6212703;23;20183;-52
2020/12/10 00:08:16;;;;;;;53.53;22.33;;;2.90;99.90;;;;;;6212447;23;20557;-53
2020/12/10 00:10:42;;;;;;;49.70;21.27;;;2.90;99.90;;;;;;6210142;23;20233;-56
2020/12/10 00:13:09;;;;;;;51.53;22.30;;;2.90;99.90;;;;;;6211517;23;20199;-52
2020/12/10 00:15:35;;;;;;;50.97;21.97;;;2.90;99.90;;;;;;6212742;23;20183;-54
2020/12/10 00:18:02;;;;;;;46.47;20.37;;;2.90;99.90;;;;;;6213039;23;20498;-55
2020/12/10 00:20:28;;;;;;;50.53;21.57;;;2.90;99.90;;;;;;6213109;23;20237;-51
2020/12/10 00:22:55;;;;;;;49.43;20.33;;;2.80;99.90;;;;;;6212854;23;20179;-55
2020/12/10 00:25:22;;;;;;;46.93;20.87;;;2.80;99.90;;;;;;6212467;23;20202;-56
2020/12/10 00:27:48;;;;;;;48.53;22.50;;;2.90;99.90;;;;;;6212648;23;20553;-54
2020/12/10 00:30:15;;;;;;;47.97;20.07;;;2.90;99.90;;;;;;6212402;23;20237;-54
2020/12/10 00:32:41;;;;;;;46.07;20.63;;;2.90;99.90;;;;;;6212945;23;20179;-59
2020/12/10 00:35:09;;;;;;;47.30;20.57;;;2.90;99.90;;;;;;6211640;23;20187;-50
2020/12/10 00:37:36;;;;;;;48.70;22.13;;;2.80;99.90;;;;;;6212240;23;20685;-52
2020/12/10 00:40:05;;;;;;;49.93;21.83;;;2.80;99.90;;;;;;6212308;23;20245;-58
2020/12/10 00:42:32;;;;;;;50.90;22.10;;;2.80;99.90;;;;;;6212598;23;20175;-52
2020/12/10 00:44:58;;;;;;;46.83;21.40;;;2.80;99.90;;;;;;6211965;23;20195;-55
2020/12/10 00:47:24;;;;;;;46.00;20.47;;;2.80;99.90;;;;;;6212347;23;20178;-56
2020/12/10 00:49:50;;;;;;;45.93;21.03;;;2.80;99.90;;;;;;6212121;23;20166;-53
2020/12/10 00:52:17;;;;;;;45.10;21.53;;;2.90;99.90;;;;;;6212042;23;20193;-50
2020/12/10 00:54:43;;;;;;;42.57;20.20;;;2.90;99.90;;;;;;6213914;23;20233;-54
2020/12/10 00:57:11;;;;;;;48.00;21.73;;;2.90;99.90;;;;;;6211803;23;20482;-52
2020/12/10 00:59:38;;;;;;;44.77;20.57;;;2.80;99.90;;;;;;6212401;23;20181;-57
2020/12/10 01:02:04;;;;;;;46.43;21.53;;;2.80;99.90;;;;;;6212324;23;20175;-53
2020/12/10 01:04:30;;;;;;;48.80;20.10;;;2.80;99.90;;;;;;6212019;23;20202;-53
2020/12/10 01:06:57;;;;;;;49.53;21.30;;;2.80;99.90;;;;;;6211979;23;20185;-54
2020/12/10 01:09:23;;;;;;;47.43;21.70;;;2.70;99.90;;;;;;6212331;23;20194;-57
2020/12/10 01:11:50;;;;;;;51.87;22.17;;;2.70;99.90;;;;;;6211794;23;20178;-53
2020/12/10 01:14:18;;;;;;;48.27;22.30;;;2.80;99.90;;;;;;6211642;23;20199;-56
2020/12/10 01:16:44;;;;;;;50.13;21.03;;;2.70;99.90;;;;;;6212469;23;20175;-51
2020/12/10 01:19:11;;;;;;;46.43;21.27;;;2.80;99.90;;;;;;6211531;23;20675;-53
2020/12/10 01:21:37;;;;;;;47.23;20.23;;;2.70;99.90;;;;;;6212499;23;20258;-55
2020/12/10 01:24:04;;;;;;;43.57;19.97;;;2.80;99.90;;;;;;6211721;23;20199;-57
2020/12/10 01:26:33;;;;;;;45.90;21.73;;;2.80;99.90;;;;;;6212648;23;20182;-54
2020/12/10 01:29:00;;;;;;;44.33;20.03;;;2.90;99.90;;;;;;6211947;23;20246;-52
2020/12/10 01:31:27;;;;;;;50.67;22.37;;;2.80;99.90;;;;;;6212091;23;20182;-54
2020/12/10 01:33:53;;;;;;;50.20;21.40;;;2.90;99.90;;;;;;6211350;23;20213;-54
2020/12/10 01:36:21;;;;;;;48.87;21.70;;;2.80;99.90;;;;;;6212070;23;20175;-54
2020/12/10 01:38:47;;;;;;;46.47;20.27;;;2.80;99.90;;;;;;6211594;23;20714;-54
2020/12/10 01:41:14;;;;;;;46.47;19.93;;;2.80;99.90;;;;;;6212099;23;20266;-53
2020/12/10 01:43:41;;;;;;;48.47;20.07;;;2.80;99.90;;;;;;6211746;23;20542;-52
2020/12/10 01:46:07;;;;;;;46.20;20.30;;;2.70;99.90;;;;;;6212548;23;20535;-53
2020/12/10 01:48:35;;;;;;;46.93;21.10;;;2.70;99.90;;;;;;6214287;23;20514;-52
2020/12/10 01:51:02;;;;;;;43.50;19.83;;;2.70;99.90;;;;;;6213921;23;20193;-54
2020/12/10 01:53:28;;;;;;;46.93;22.07;;;2.70;99.90;;;;;;6213929;23;20354;-54
2020/12/10 01:55:55;;;;;;;44.43;20.30;;;2.70;99.90;;;;;;6213978;23;20487;-54
2020/12/10 01:58:21;;;;;;;46.00;20.10;;;2.60;99.90;;;;;;6213850;23;20536;-50
2020/12/10 02:00:48;;;;;;;54.10;23.33;;;2.60;99.90;;;;;;6213899;23;20262;-52
2020/12/10 02:03:14;;;;;;;41.50;19.80;;;2.60;99.90;;;;;;6214133;23;20222;-54
2020/12/10 02:05:42;;;;;;;45.63;20.17;;;2.70;99.90;;;;;;6213756;23;20182;-57
2020/12/10 02:08:09;;;;;;;49.10;21.30;;;2.70;99.90;;;;;;6214013;23;20181;-53
2020/12/10 02:10:35;;;;;;;47.30;20.17;;;2.70;99.90;;;;;;6213876;23;20181;-53
2020/12/10 02:13:02;;;;;;;45.73;20.63;;;2.70;99.90;;;;;;6213606;23;20665;-55
2020/12/10 02:15:28;;;;;;;45.37;20.33;;;2.70;99.90;;;;;;6213509;23;20665;-51
2020/12/10 02:17:54;;;;;;;47.47;20.40;;;2.70;99.90;;;;;;6213621;23;20642;-57
2020/12/10 02:20:21;;;;;;;44.40;21.30;;;2.80;99.90;;;;;;6214325;23;20160;-56
2020/12/10 02:22:57;;;;;;;44.47;20.13;;;2.80;99.90;;;;;;6213617;23;20179;-54
2020/12/10 02:25:24;;;;;;;46.63;21.03;;;2.80;99.90;;;;;;6214000;23;20159;-54
2020/12/10 02:27:50;;;;;;;48.23;20.50;;;2.70;99.90;;;;;;6213592;23;20643;-52
2020/12/10 02:30:16;;;;;;;45.70;20.00;;;2.70;99.90;;;;;;6213961;23;20181;-54
2020/12/10 02:32:42;;;;;;;44.50;20.57;;;2.60;99.90;;;;;;6214293;23;20505;-57
2020/12/10 02:35:09;;;;;;;44.67;20.60;;;2.60;99.90;;;;;;6213043;23;20206;-52
2020/12/10 02:37:35;;;;;;;46.20;20.73;;;2.60;99.90;;;;;;6213665;23;20203;-54
2020/12/10 02:40:03;;;;;;;50.70;21.97;;;2.60;99.90;;;;;;6213540;23;20179;-57
2020/12/10 02:42:29;;;;;;;48.27;21.87;;;2.60;99.90;;;;;;6213935;23;20186;-50
2020/12/10 02:44:56;;;;;;;50.93;22.57;;;2.60;99.90;;;;;;6212833;23;20195;-53
2020/12/10 02:47:22;;;;;;;55.67;21.90;;;2.60;99.90;;;;;;6213372;23;20523;-50
2020/12/10 02:49:48;;;;;;;51.37;23.10;;;2.60;99.90;;;;;;6213834;23;20182;-51
2020/12/10 02:52:16;;;;;;;49.93;21.23;;;2.60;99.90;;;;;;6213632;23;20185;-52
2020/12/10 02:54:42;;;;;;;51.53;22.60;;;2.70;99.90;;;;;;6213479;23;20195;-53
2020/12/10 02:57:09;;;;;;;56.67;22.53;;;2.70;99.90;;;;;;6212986;23;20679;-49
2020/12/10 02:59:36;;;;;;;52.63;22.80;;;2.70;99.90;;;;;;6213426;23;20202;-50
2020/12/10 03:02:02;;;;;;;48.10;20.80;;;2.80;99.90;;;;;;6213292;23;20185;-51
2020/12/10 03:04:28;;;;;;;49.37;21.53;;;2.80;99.90;;;;;;6212741;23;20205;-50
2020/12/10 03:06:55;;;;;;;49.10;21.23;;;2.80;99.90;;;;;;6213392;23;20181;-47
2020/12/10 03:09:21;;;;;;;50.53;21.63;;;2.80;99.90;;;;;;6211580;23;20175;-52
2020/12/10 03:11:47;;;;;;;51.40;21.33;;;2.90;99.90;;;;;;6211813;23;20194;-54
2020/12/10 03:14:15;;;;;;;51.30;22.23;;;2.90;99.90;;;;;;6212684;23;20195;-55
2020/12/10 03:16:41;;;;;;;53.40;22.27;;;2.90;99.90;;;;;;6213031;23;20175;-56
2020/12/10 03:19:07;;;;;;;47.73;20.87;;;2.90;99.90;;;;;;6213014;23;20196;-50
2020/12/10 03:21:33;;;;;;;54.93;21.73;;;2.90;99.90;;;;;;6213009;23;20176;-53
2020/12/10 03:24:00;;;;;;;50.47;21.80;;;2.80;99.90;;;;;;6212608;23;20195;-52
2020/12/10 03:26:27;;;;;;;51.80;23.00;;;2.70;99.90;;;;;;6212405;23;20274;-52
2020/12/10 03:28:53;;;;;;;49.73;20.87;;;2.70;99.90;;;;;;6211589;23;20516;-55
2020/12/10 03:31:20;;;;;;;53.60;22.57;;;2.80;99.90;;;;;;6212514;23;20194;-53
2020/12/10 03:33:47;;;;;;;48.10;21.73;;;2.60;99.90;;;;;;6212167;23;20214;-53
2020/12/10 03:36:13;;;;;;;44.80;20.53;;;2.60;99.90;;;;;;6213256;23;20197;-51
2020/12/10 03:38:39;;;;;;;49.87;21.80;;;2.70;99.90;;;;;;6212293;23;20703;-52
2020/12/10 03:41:06;;;;;;;50.30;21.47;;;2.70;99.90;;;;;;6212738;23;20179;-54
2020/12/10 03:43:32;;;;;;;50.83;20.80;;;2.80;99.90;;;;;;6212162;23;20199;-53
2020/12/10 03:45:59;;;;;;;55.60;22.10;;;2.80;99.90;;;;;;6212670;23;20191;-50
2020/12/10 03:48:26;;;;;;;54.87;23.23;;;2.80;99.90;;;;;;6212652;23;20193;-54
2020/12/10 03:50:52;;;;;;;53.83;23.17;;;2.80;99.90;;;;;;6212192;23;20194;-53
2020/12/10 03:53:18;;;;;;;49.77;20.63;;;2.80;99.90;;;;;;6212245;23;20205;-52
2020/12/10 03:55:45;;;;;;;48.37;20.97;;;2.90;99.90;;;;;;6213224;22;20782;-56
2020/12/10 03:58:11;;;;;;;52.17;22.20;;;2.90;99.90;;;;;;6213893;23;20205;-57
2020/12/10 04:00:37;;;;;;;48.47;22.10;;;2.90;99.90;;;;;;6213526;23;20181;-57
2020/12/10 04:03:03;;;;;;;53.43;21.53;;;2.90;99.90;;;;;;6214322;23;20175;-55
2020/12/10 04:05:30;;;;;;;54.40;22.10;;;2.90;99.90;;;;;;6214237;23;20533;-61
2020/12/10 04:07:57;;;;;;;49.37;21.07;;;2.90;99.90;;;;;;6214233;23;20175;-60
2020/12/10 04:10:23;;;;;;;47.73;22.53;;;2.90;99.90;;;;;;6214556;23;20297;-62
2020/12/10 04:12:49;;;;;;;55.30;22.67;;;2.90;99.90;;;;;;6214000;23;20735;-60
2020/12/10 04:15:16;;;;;;;51.33;22.53;;;2.90;99.90;;;;;;6213466;23;20217;-59
2020/12/10 04:17:42;;;;;;;50.13;21.33;;;2.90;99.90;;;;;;6213471;23;20175;-59
2020/12/10 04:20:08;;;;;;;49.53;21.03;;;2.90;99.90;;;;;;6213575;23;20706;-59
2020/12/10 04:22:35;;;;;;;51.23;21.10;;;2.80;99.90;;;;;;6214790;23;20258;-60
2020/12/10 04:25:01;;;;;;;51.00;21.37;;;2.70;99.90;;;;;;6213655;23;20468;-55
2020/12/10 04:27:28;;;;;;;55.07;23.57;;;2.70;99.90;;;;;;6213552;23;20175;-59
2020/12/10 04:29:54;;;;;;;51.67;20.97;;;2.70;99.90;;;;;;6214402;23;20210;-57
2020/12/10 04:32:20;;;;;;;55.97;23.57;;;2.70;99.90;;;;;;6214696;23;20181;-59
2020/12/10 04:34:47;;;;;;;49.83;21.07;;;2.70;99.90;;;;;;6214112;23;20175;-55
2020/12/10 04:37:13;;;;;;;51.90;23.10;;;2.70;99.90;;;;;;6214465;23;20179;-59
2020/12/10 04:39:40;;;;;;;53.30;22.77;;;2.70;99.90;;;;;;6214195;23;20203;-60
2020/12/10 04:42:09;;;;;;;59.43;22.53;;;2.80;99.90;;;;;;6214470;23;20179;-57
2020/12/10 04:44:35;;;;;;;53.93;22.23;;;2.80;99.90;;;;;;6214265;23;20179;-58
2020/12/10 04:47:01;;;;;;;58.70;23.47;;;2.80;99.90;;;;;;6214118;23;20179;-58
2020/12/10 04:49:29;;;;;;;53.80;21.67;;;2.90;99.90;;;;;;6213874;23;20171;-58
2020/12/10 04:51:56;;;;;;;56.77;22.63;;;2.90;99.90;;;;;;6214131;23;20179;-58
2020/12/10 04:54:23;;;;;;;54.80;22.20;;;3.00;99.90;;;;;;6213801;23;20585;-57
2020/12/10 04:56:50;;;;;;;56.43;22.20;;;2.90;99.90;;;;;;6213741;23;20203;-55
2020/12/10 04:59:17;;;;;;;51.07;22.37;;;2.90;99.90;;;;;;6213799;23;20744;-57
2020/12/10 05:01:43;;;;;;;53.17;21.50;;;2.90;99.90;;;;;;6213997;23;20159;-56
2020/12/10 05:04:10;;;;;;;62.07;22.97;;;2.90;99.90;;;;;;6213383;23;20179;-59
2020/12/10 05:06:48;;;;;;;58.80;22.33;;;2.90;99.90;;;;;;6213138;23;20194;-58
2020/12/10 05:09:14;;;;;;;55.67;22.13;;;2.80;99.90;;;;;;6213939;23;20155;-55
2020/12/10 05:11:40;;;;;;;53.93;23.10;;;2.80;99.90;;;;;;6214335;23;20181;-55
2020/12/10 05:14:08;;;;;;;58.60;23.47;;;2.80;99.90;;;;;;6213013;23;20183;-59
2020/12/10 05:16:34;;;;;;;56.20;24.23;;;2.90;99.90;;;;;;6213148;23;20709;-60
2020/12/10 05:19:18;;;;;;;59.13;23.40;;;2.80;99.90;;;;;;6213181;23;20194;-59
2020/12/10 05:22:09;;;;;;;56.73;22.50;;;2.90;99.90;;;;;;6214500;23;20159;-59
2020/12/10 05:24:36;;;;;;;55.63;23.03;;;2.90;99.90;;;;;;6184110;23;20179;-56
2020/12/10 05:27:17;;;;;;;60.27;22.67;;;3.00;99.90;;;;;;6214177;23;20261;-60
2020/12/10 05:29:44;;;;;;;60.37;22.33;;;3.00;99.90;;;;;;6213572;23;20206;-56
2020/12/10 05:32:32;;;;;;;58.97;23.63;;;3.10;99.90;;;;;;6214120;23;20181;-58
2020/12/10 05:34:58;;;;;;;59.53;21.80;;;3.00;99.90;;;;;;6213677;23;20201;-60
2020/12/10 05:37:29;;;;;;;59.93;22.47;;;3.00;99.90;;;;;;6214146;23;20258;-57
2020/12/10 05:40:00;;;;;;;68.37;24.93;;;2.90;99.90;;;;;;6212601;23;20203;-60
2020/12/10 05:42:35;;;;;;;64.10;23.73;;;2.90;99.90;;;;;;6213922;23;20183;-58
2020/12/10 05:45:09;;;;;;;61.10;23.87;;;2.90;99.90;;;;;;6213315;23;20690;-59
2020/12/10 05:47:39;;;;;;;64.67;24.37;;;2.90;99.90;;;;;;6213611;23;20619;-57
2020/12/10 05:50:06;;;;;;;63.47;24.33;;;2.90;99.90;;;;;;6214075;23;20203;-57
2020/12/10 05:52:35;;;;;;;70.70;24.87;;;2.90;99.90;;;;;;6213984;23;20258;-58
2020/12/10 05:55:03;;;;;;;66.70;24.10;;;2.90;99.90;;;;;;6213261;23;20679;-57
2020/12/10 05:57:29;;;;;;;77.70;26.40;;;2.90;99.90;;;;;;6213768;23;20190;-59
2020/12/10 05:59:57;;;;;;;71.47;25.10;;;2.80;99.90;;;;;;6214125;23;20203;-58
2020/12/10 06:02:25;;;;;;;78.03;25.77;;;2.80;99.90;;;;;;6213729;23;20182;-60
2020/12/10 06:04:53;;;;;;;86.83;26.77;;;2.90;99.90;;;;;;6213825;23;20277;-57
2020/12/10 06:07:19;;;;;;;96.40;27.23;;;2.90;99.90;;;;;;6213457;23;20644;-57
2020/12/10 06:09:46;;;;;;;104.03;25.67;;;2.80;99.90;;;;;;6214368;23;20259;-59
2020/12/10 06:12:12;;;;;;;70.80;23.40;;;2.90;99.90;;;;;;6213941;23;20205;-58
2020/12/10 06:14:51;;;;;;;79.67;25.27;;;2.80;99.90;;;;;;6213523;23;20210;-57
2020/12/10 06:17:18;;;;;;;88.70;27.93;;;2.90;99.90;;;;;;6213524;23;20181;-60
2020/12/10 06:19:45;;;;;;;90.20;24.63;;;2.80;99.90;;;;;;6213751;23;20201;-58
2020/12/10 06:22:23;;;;;;;78.67;24.37;;;2.90;99.90;;;;;;6213845;23;20175;-57
2020/12/10 06:24:50;;;;;;;74.37;26.07;;;2.90;99.90;;;;;;6213018;23;20163;-57
2020/12/10 06:27:33;;;;;;;72.30;25.67;;;3.00;99.90;;;;;;6213558;23;20726;-58
2020/12/10 06:30:16;;;;;;;92.83;24.13;;;3.10;99.90;;;;;;6210834;23;20179;-60
2020/12/10 06:32:44;;;;;;;82.53;24.43;;;2.90;99.90;;;;;;6213956;23;20210;-59
2020/12/10 06:35:29;;;;;;;82.63;23.83;;;2.90;99.90;;;;;;6214807;23;20278;-59
2020/12/10 06:37:57;;;;;;;62.73;22.83;;;2.90;99.90;;;;;;6215874;23;20179;-59
2020/12/10 06:40:32;;;;;;;82.10;25.13;;;2.90;99.90;;;;;;6215428;23;20517;-58
2020/12/10 06:42:59;;;;;;;64.73;22.40;;;2.90;99.90;;;;;;6215635;23;20179;-59
2020/12/10 06:45:27;;;;;;;76.47;23.50;;;2.90;99.90;;;;;;6215107;23;20547;-59
2020/12/10 06:47:54;;;;;;;72.53;23.60;;;2.90;99.90;;;;;;6215178;23;20509;-58
2020/12/10 06:50:22;;;;;;;87.07;24.00;;;2.90;99.90;;;;;;6214983;23;20262;-60
2020/12/10 06:53:17;;;;;;;106.53;24.97;;;2.90;99.90;;;;;;6215424;23;20175;-60
2020/12/10 06:56:04;;;;;;;83.00;25.83;;;3.00;99.90;;;;;;6214826;23;20695;-61
2020/12/10 06:58:48;;;;;;;80.17;24.40;;;3.00;99.90;;;;;;6215372;23;20217;-61
2020/12/10 07:01:32;;;;;;;81.93;25.40;;;3.00;99.90;;;;;;6215446;23;20221;-59
2020/12/10 07:04:18;;;;;;;65.80;24.57;;;3.00;99.90;;;;;;6215394;23;20218;-60
2020/12/10 07:06:45;;;;;;;76.93;24.43;;;3.00;99.90;;;;;;6215484;23;20219;-58
2020/12/10 07:09:14;;;;;;;87.43;24.63;;;3.00;99.90;;;;;;6215075;23;20175;-59
2020/12/10 07:11:42;;;;;;;88.20;26.50;;;3.00;99.90;;;;;;6215270;23;20207;-61
2020/12/10 07:14:23;;;;;;;83.80;24.17;;;3.00;99.90;;;;;;6214864;23;20182;-59
2020/12/10 07:16:49;;;;;;;75.87;25.23;;;3.00;99.90;;;;;;6215767;23;20201;-60
2020/12/10 07:19:16;;;;;;;79.53;26.27;;;3.00;99.90;;;;;;6215074;23;20516;-59
2020/12/10 07:21:43;;;;;;;77.57;26.07;;;3.00;99.90;;;;;;6215030;23;20263;-60
2020/12/10 07:24:09;;;;;;;69.60;26.77;;;3.00;99.90;;;;;;6214669;23;20182;-59
2020/12/10 07:26:36;;;;;;;92.33;25.37;;;3.00;99.90;;;;;;6215103;23;20231;-59
2020/12/10 07:29:03;;;;;;;81.37;24.90;;;3.10;99.90;;;;;;6215023;23;20176;-61
2020/12/10 07:31:29;;;;;;;73.67;25.40;;;3.10;99.90;;;;;;6214649;23;20185;-60
2020/12/10 07:33:56;;;;;;;91.53;25.33;;;3.10;99.90;;;;;;6214746;23;20179;-58
2020/12/10 07:36:22;;;;;;;82.70;26.90;;;3.10;99.90;;;;;;6215362;23;20202;-60
2020/12/10 07:38:49;;;;;;;85.77;25.80;;;3.10;99.90;;;;;;6215178;23;20195;-60
2020/12/10 07:41:16;;;;;;;80.83;27.30;;;3.10;99.90;;;;;;6214706;23;20719;-61
2020/12/10 07:43:47;;;;;;;86.50;26.13;;;3.20;99.90;;;;;;6212919;23;20262;-60
2020/12/10 07:46:14;;;;;;;93.47;26.03;;;3.20;99.90;;;;;;6213051;23;20195;-60
2020/12/10 07:48:41;;;;;;;102.20;28.37;;;3.10;99.90;;;;;;6214004;23;20177;-60
2020/12/10 07:51:08;;;;;;;77.40;26.53;;;3.10;99.90;;;;;;6214520;23;20175;-60
2020/12/10 07:53:34;;;;;;;68.77;25.70;;;3.10;99.90;;;;;;6213960;23;20179;-60
2020/12/10 07:56:02;;;;;;;71.37;24.73;;;3.20;99.90;;;;;;6214039;23;20281;-60
2020/12/10 07:58:36;;;;;;;84.93;26.57;;;3.20;99.90;;;;;;6213189;23;20281;-61
2020/12/10 08:01:05;;;;;;;72.60;25.37;;;3.20;99.90;;;;;;6214701;23;20159;-59
2020/12/10 08:03:48;;;;;;;79.67;26.63;;;3.20;99.90;;;;;;6214764;23;20179;-60
2020/12/10 08:06:15;;;;;;;64.77;24.93;;;3.30;99.90;;;;;;6214780;23;20269;-61
2020/12/10 08:08:45;;;;;;;75.73;27.40;;;3.30;99.90;;;;;;6214558;23;20250;-61
2020/12/10 08:11:15;;;;;;;79.97;25.20;;;3.20;99.90;;;;;;6214454;23;20718;-60
2020/12/10 08:13:55;;;;;;;74.53;24.87;;;3.20;99.90;;;;;;6214475;23;20175;-60
2020/12/10 08:16:22;;;;;;;72.33;25.67;;;3.30;99.90;;;;;;6214674;23;20525;-60
2020/12/10 08:18:49;;;;;;;73.40;23.80;;;3.40;99.90;;;;;;6214213;23;20527;-60
2020/12/10 08:21:30;;;;;;;69.47;26.00;;;3.40;99.90;;;;;;6214053;23;20257;-61
2020/12/10 08:23:57;;;;;;;81.30;25.63;;;3.30;99.90;;;;;;6214653;23;20209;-61
2020/12/10 08:26:23;;;;;;;91.60;25.63;;;3.30;99.90;;;;;;6214229;23;20282;-59
2020/12/10 08:28:54;;;;;;;76.47;26.10;;;3.30;99.90;;;;;;6215176;23;20175;-60
2020/12/10 08:31:23;;;;;;;73.70;27.03;;;3.30;99.90;;;;;;6214122;23;20542;-61
2020/12/10 08:33:49;;;;;;;124.30;26.37;;;3.40;99.90;;;;;;6214411;23;20258;-56
2020/12/10 08:36:32;;;;;;;73.97;25.17;;;3.30;99.90;;;;;;6214504;23;20201;-60
2020/12/10 08:39:00;;;;;;;65.07;25.80;;;3.40;99.90;;;;;;6214166;23;20191;-60
2020/12/10 08:41:29;;;;;;;75.30;26.30;;;3.40;99.90;;;;;;6214366;23;20202;-60
2020/12/10 08:43:57;;;;;;;73.13;25.90;;;3.40;99.90;;;;;;6214192;23;20222;-59
2020/12/10 08:46:25;;;;;;;81.00;28.07;;;3.30;99.90;;;;;;6214591;23;20246;-60
2020/12/10 08:48:52;;;;;;;63.70;23.90;;;3.40;99.90;;;;;;6212682;23;20516;-61
2020/12/10 08:51:19;;;;;;;85.67;25.07;;;3.40;99.90;;;;;;6214216;23;20179;-60
2020/12/10 08:53:46;;;;;;;72.07;25.37;;;3.40;99.90;;;;;;6212759;23;20182;-58
2020/12/10 08:56:22;;;;;;;87.73;25.57;;;3.40;99.90;;;;;;6213305;23;20290;-60
2020/12/10 08:58:48;;;;;;;66.90;24.67;;;3.50;99.90;;;;;;6213766;23;20189;-61
2020/12/10 09:01:15;;;;;;;70.53;26.10;;;3.50;99.90;;;;;;6214351;23;20179;-61
2020/12/10 09:03:42;;;;;;;71.53;24.80;;;3.50;99.90;;;;;;6213910;23;20179;-60
2020/12/10 09:06:08;;;;;;;68.03;25.97;;;3.50;99.90;;;;;;6214147;23;20210;-60
2020/12/10 09:08:34;;;;;;;69.40;24.90;;;3.60;99.90;;;;;;6213896;23;20159;-57
2020/12/10 09:11:01;;;;;;;71.77;25.60;;;3.60;99.90;;;;;;6214083;23;20175;-61
2020/12/10 09:13:27;;;;;;;62.70;25.40;;;3.60;99.90;;;;;;6213967;23;20261;-60
2020/12/10 09:15:53;;;;;;;63.03;24.20;;;3.60;99.90;;;;;;6214019;23;20277;-59
2020/12/10 09:18:20;;;;;;;74.90;26.70;;;3.40;99.90;;;;;;6213935;23;20258;-61
2020/12/10 09:20:47;;;;;;;79.80;27.93;;;3.40;99.90;;;;;;6214163;23;20257;-60
2020/12/10 09:23:14;;;;;;;68.37;27.33;;;3.50;99.90;;;;;;6214040;23;20258;-60
2020/12/10 09:25:40;;;;;;;68.83;27.20;;;3.50;99.90;;;;;;6214311;23;20270;-61
2020/12/10 09:28:09;;;;;;;65.90;25.10;;;3.50;99.90;;;;;;6214069;23;20518;-61
2020/12/10 09:30:36;;;;;;;80.77;26.97;;;3.50;99.90;;;;;;6213619;23;20179;-58
2020/12/10 09:33:03;;;;;;;84.57;27.33;;;3.50;99.90;;;;;;6213491;23;20179;-60
2020/12/10 09:35:30;;;;;;;80.73;28.27;;;3.50;99.90;;;;;;6213580;23;20285;-58
2020/12/10 09:37:58;;;;;;;97.37;26.97;;;3.50;99.90;;;;;;6213653;23;20182;-56
2020/12/10 09:40:25;;;;;;;82.80;27.20;;;3.60;99.90;;;;;;6213743;23;20230;-59
2020/12/10 09:42:51;;;;;;;95.10;27.07;;;3.60;99.90;;;;;;6214162;23;20627;-58
2020/12/10 09:45:18;;;;;;;80.93;25.53;;;3.70;99.90;;;;;;6213721;23;20217;-61
2020/12/10 09:47:46;;;;;;;79.83;27.83;;;3.60;99.90;;;;;;6213589;23;20560;-61
2020/12/10 09:50:19;;;;;;;75.97;27.10;;;3.70;99.90;;;;;;6214216;23;20262;-59
2020/12/10 09:52:54;;;;;;;83.23;28.07;;;3.70;99.90;;;;;;6213545;23;20647;-61
2020/12/10 09:58:08;;;;;;;98.17;28.77;;;3.70;99.90;;;;;;6162809;23;20175;-62
2020/12/10 10:00:34;;;;;;;74.23;28.13;;;3.70;99.90;;;;;;6213919;23;20226;-59
2020/12/10 10:03:05;;;;;;;81.50;28.17;;;3.80;99.90;;;;;;6213850;23;20556;-55
2020/12/10 10:05:32;;;;;;;74.77;28.70;;;3.80;99.90;;;;;;6213951;23;20199;-61
2020/12/10 10:07:58;;;;;;;77.50;28.43;;;3.80;99.90;;;;;;6214863;23;20531;-61
2020/12/10 10:10:26;;;;;;;76.87;28.50;;;3.80;99.90;;;;;;6215823;23;20175;-61
2020/12/10 10:12:52;;;;;;;74.87;27.60;;;3.90;99.90;;;;;;6215744;23;20249;-61
2020/12/10 10:15:18;;;;;;;76.40;28.40;;;3.90;99.90;;;;;;6215851;23;20256;-61
2020/12/10 10:17:45;;;;;;;69.17;27.13;;;4.00;99.90;;;;;;6216078;23;20229;-61
2020/12/10 10:20:11;;;;;;;61.33;26.13;;;3.90;99.90;;;;;;6215923;23;20277;-58
2020/12/10 10:22:39;;;;;;;62.80;25.47;;;3.90;99.90;;;;;;6216338;23;20181;-60
2020/12/10 10:25:05;;;;;;;56.80;24.37;;;4.00;99.90;;;;;;6215380;23;20199;-61
2020/12/10 10:27:32;;;;;;;64.20;27.20;;;4.00;99.90;;;;;;6216101;23;20262;-60
2020/12/10 10:29:58;;;;;;;66.30;25.83;;;3.90;99.90;;;;;;6215654;23;20185;-61
2020/12/10 10:32:25;;;;;;;55.73;23.93;;;4.00;99.90;;;;;;6215519;23;20257;-59
2020/12/10 10:34:51;;;;;;;55.30;23.73;;;3.90;99.90;;;;;;6215065;23;20175;-61
2020/12/10 10:37:17;;;;;;;58.17;25.30;;;3.90;99.90;;;;;;6215332;23;20666;-61
2020/12/10 10:39:44;;;;;;;56.77;23.10;;;3.90;99.90;;;;;;6215414;23;20687;-56
2020/12/10 10:42:10;;;;;;;58.03;23.93;;;4.00;99.90;;;;;;6215689;23;20175;-60
2020/12/10 10:44:37;;;;;;;56.50;24.40;;;4.00;99.90;;;;;;6215314;23;20183;-60
2020/12/10 10:47:03;;;;;;;60.97;26.30;;;4.00;99.90;;;;;;6215229;23;20695;-60
2020/12/10 10:49:30;;;;;;;55.70;24.07;;;4.10;99.90;;;;;;6215898;23;20171;-61
2020/12/10 10:51:56;;;;;;;56.90;23.07;;;4.00;99.90;;;;;;6215158;23;20206;-59
2020/12/10 10:54:22;;;;;;;55.70;24.00;;;4.10;99.90;;;;;;6212569;23;20925;-61
2020/12/10 10:56:49;;;;;;;55.70;23.30;;;4.10;99.90;;;;;;6211907;23;20235;-58
2020/12/10 10:59:15;;;;;;;55.47;23.63;;;4.10;99.90;;;;;;6213069;23;20190;-60
2020/12/10 11:01:42;;;;;;;50.97;22.73;;;4.10;99.90;;;;;;6213463;23;20265;-60
2020/12/10 11:04:08;;;;;;;51.47;22.60;;;4.10;99.90;;;;;;6212379;23;20712;-61
2020/12/10 11:06:35;;;;;;;58.27;23.03;;;4.20;99.90;;;;;;6213355;23;20206;-60
2020/12/10 11:09:01;;;;;;;48.77;21.93;;;4.10;99.90;;;;;;6213956;23;20179;-60
2020/12/10 11:11:27;;;;;;;53.33;23.17;;;4.10;99.90;;;;;;6212989;23;20265;-59
2020/12/10 11:13:54;;;;;;;54.03;22.50;;;4.10;99.90;;;;;;6213724;23;20510;-57
2020/12/10 11:16:21;;;;;;;53.17;22.27;;;4.10;99.90;;;;;;6213123;23;20195;-57
2020/12/10 11:18:48;;;;;;;54.63;23.30;;;4.10;99.90;;;;;;6212472;23;20261;-59
2020/12/10 11:21:16;;;;;;;54.97;22.60;;;4.10;99.90;;;;;;6213135;23;20576;-60
2020/12/10 11:23:42;;;;;;;52.37;20.87;;;4.10;99.90;;;;;;6212985;23;20185;-58
2020/12/10 11:26:09;;;;;;;48.33;21.80;;;4.10;99.90;;;;;;6213554;23;20578;-57
2020/12/10 11:28:35;;;;;;;52.47;23.03;;;4.10;99.90;;;;;;6212980;23;20160;-59
2020/12/10 11:31:02;;;;;;;55.57;22.67;;;4.00;99.90;;;;;;6213687;23;20159;-60
2020/12/10 11:33:28;;;;;;;48.97;21.37;;;4.10;99.90;;;;;;6212952;23;20176;-57
2020/12/10 11:35:55;;;;;;;50.67;22.20;;;4.10;99.90;;;;;;6213322;23;20222;-61
2020/12/10 11:38:22;;;;;;;53.20;22.60;;;4.00;99.90;;;;;;6212782;23;20477;-59
2020/12/10 11:40:48;;;;;;;46.87;21.97;;;4.10;99.90;;;;;;6212927;23;20180;-61
2020/12/10 11:43:16;;;;;;;53.63;22.23;;;4.10;99.90;;;;;;6214043;23;20175;-60
2020/12/10 11:45:42;;;;;;;56.37;23.33;;;4.10;99.90;;;;;;6213218;23;20354;-59
2020/12/10 11:48:09;;;;;;;50.07;22.53;;;4.10;99.90;;;;;;6213493;23;20186;-58
2020/12/10 11:50:37;;;;;;;53.17;23.23;;;4.10;99.90;;;;;;6213047;23;20214;-58
2020/12/10 11:53:05;;;;;;;50.60;22.00;;;4.10;99.90;;;;;;6213208;23;20175;-61
2020/12/10 11:55:32;;;;;;;54.80;23.93;;;4.00;99.90;;;;;;6212602;23;20297;-59
2020/12/10 11:57:58;;;;;;;49.10;22.10;;;4.00;99.90;;;;;;6212970;23;20197;-57
2020/12/10 12:00:24;;;;;;;52.57;23.90;;;4.10;99.90;;;;;;6213000;23;20606;-60
2020/12/10 12:02:51;;;;;;;51.20;23.13;;;4.10;99.90;;;;;;6213273;23;20169;-60
2020/12/10 12:05:19;;;;;;;52.10;22.50;;;4.10;99.90;;;;;;6213141;23;20199;-59
2020/12/10 12:07:47;;;;;;;58.40;24.13;;;4.10;99.90;;;;;;6213052;23;20194;-60
2020/12/10 12:10:15;;;;;;;56.97;22.40;;;4.10;99.90;;;;;;6212954;23;20607;-60
2020/12/10 12:12:42;;;;;;;56.43;24.83;;;4.10;99.90;;;;;;6212558;23;20175;-60
2020/12/10 12:15:09;;;;;;;57.37;24.87;;;4.00;99.90;;;;;;6212267;23;20199;-58
2020/12/10 12:17:35;;;;;;;55.87;23.97;;;4.10;99.90;;;;;;6212832;23;20258;-58
2020/12/10 12:20:02;;;;;;;58.47;24.63;;;4.00;99.90;;;;;;6213000;23;20237;-59
2020/12/10 12:22:28;;;;;;;53.10;23.33;;;4.10;99.90;;;;;;6212752;23;20709;-58
2020/12/10 12:24:54;;;;;;;63.23;25.47;;;4.00;99.90;;;;;;6212133;23;20301;-59
2020/12/10 12:27:21;;;;;;;57.27;23.17;;;4.00;99.90;;;;;;6213069;23;20677;-57
2020/12/10 12:29:48;;;;;;;54.50;23.37;;;4.10;99.90;;;;;;6211928;23;20680;-57
2020/12/10 12:32:14;;;;;;;49.63;22.33;;;4.00;99.90;;;;;;6212925;23;20271;-61
2020/12/10 12:34:41;;;;;;;61.43;24.70;;;4.00;99.90;;;;;;6211705;23;20179;-57
2020/12/10 12:37:07;;;;;;;56.40;25.23;;;4.00;99.90;;;;;;6212658;23;20212;-59
2020/12/10 12:39:33;;;;;;;59.13;23.60;;;4.00;99.90;;;;;;6213116;23;20274;-57
2020/12/10 12:42:03;;;;;;;52.83;22.23;;;4.00;99.90;;;;;;6213183;23;20175;-60